sensor_id;sensor_type;location;lat;lon;timestamp;P1;durP1;ratioP1;P2;durP2;ratioP2
4001;SDS011;2015;48.670;9.060;2024-02-21T00:02:31;4.00;;;3.70;;
4001;SDS011;2015;48.670;9.060;2024-02-21T00:05:03;17.13;;;5.37;;
4001;SDS011;2015;48.670;9.060;2024-02-21T00:07:35;4.33;;;4.03;;
4001;SDS011;2015;48.670;9.060;2024-02-21T00:10:07;4.73;;;4.30;;
4001;SDS011;2015;48.670;9.060;2024-02-21T00:12:39;8.73;;;4.40;;
4001;SDS011;2015;48.670;9.060;2024-02-21T00:15:11;7.40;;;5.13;;
4001;SDS011;2015;48.670;9.060;2024-02-21T00:17:43;5.87;;;3.83;;
4001;SDS011;2015;48.670;9.060;2024-02-21T00:20:15;6.67;;;3.80;;
4001;SDS011;2015;48.670;9.060;2024-02-21T00:22:47;4.53;;;3.33;;
4001;SDS011;2015;48.670;9.060;2024-02-21T00:25:19;13.43;;;3.63;;
4001;SDS011;2015;48.670;9.060;2024-02-21T00:27:51;3.93;;;3.63;;
4001;SDS011;2015;48.670;9.060;2024-02-21T00:30:25;8.87;;;4.70;;
4001;SDS011;2015;48.670;9.060;2024-02-21T00:32:56;7.80;;;3.57;;
4001;SDS011;2015;48.670;9.060;2024-02-21T00:35:28;9.50;;;4.10;;
4001;SDS011;2015;48.670;9.060;2024-02-21T00:38:00;8.63;;;4.13;;
4001;SDS011;2015;48.670;9.060;2024-02-21T00:40:32;4.47;;;4.10;;
4001;SDS011;2015;48.670;9.060;2024-02-21T00:43:04;5.18;;;4.53;;
4001;SDS011;2015;48.670;9.060;2024-02-21T00:45:35;6.87;;;4.30;;
4001;SDS011;2015;48.670;9.060;2024-02-21T00:48:07;4.17;;;3.97;;
4001;SDS011;2015;48.670;9.060;2024-02-21T00:50:39;12.13;;;4.80;;
4001;SDS011;2015;48.670;9.060;2024-02-21T00:53:11;5.90;;;5.30;;
4001;SDS011;2015;48.670;9.060;2024-02-21T00:55:42;6.80;;;5.50;;
4001;SDS011;2015;48.670;9.060;2024-02-21T00:58:14;8.40;;;4.57;;
4001;SDS011;2015;48.670;9.060;2024-02-21T01:00:46;10.10;;;4.73;;
4001;SDS011;2015;48.670;9.060;2024-02-21T01:03:18;4.63;;;4.30;;
4001;SDS011;2015;48.670;9.060;2024-02-21T01:05:50;7.83;;;3.57;;
4001;SDS011;2015;48.670;9.060;2024-02-21T01:08:22;6.53;;;4.73;;
4001;SDS011;2015;48.670;9.060;2024-02-21T01:10:53;6.00;;;2.90;;
4001;SDS011;2015;48.670;9.060;2024-02-21T01:13:25;11.40;;;4.67;;
4001;SDS011;2015;48.670;9.060;2024-02-21T01:15:57;4.37;;;4.07;;
4001;SDS011;2015;48.670;9.060;2024-02-21T01:18:29;11.83;;;4.43;;
4001;SDS011;2015;48.670;9.060;2024-02-21T01:21:01;7.80;;;3.73;;
4001;SDS011;2015;48.670;9.060;2024-02-21T01:23:34;4.03;;;3.73;;
4001;SDS011;2015;48.670;9.060;2024-02-21T01:26:06;3.77;;;3.50;;
4001;SDS011;2015;48.670;9.060;2024-02-21T01:28:40;5.57;;;4.30;;
4001;SDS011;2015;48.670;9.060;2024-02-21T01:31:12;3.60;;;3.30;;
4001;SDS011;2015;48.670;9.060;2024-02-21T01:33:44;4.83;;;3.60;;
4001;SDS011;2015;48.670;9.060;2024-02-21T01:36:16;4.73;;;3.87;;
4001;SDS011;2015;48.670;9.060;2024-02-21T01:38:48;8.40;;;3.97;;
4001;SDS011;2015;48.670;9.060;2024-02-21T01:41:19;4.00;;;3.60;;
4001;SDS011;2015;48.670;9.060;2024-02-21T01:43:51;5.77;;;3.40;;
4001;SDS011;2015;48.670;9.060;2024-02-21T01:46:24;4.20;;;3.80;;
4001;SDS011;2015;48.670;9.060;2024-02-21T01:49:00;7.13;;;4.60;;
4001;SDS011;2015;48.670;9.060;2024-02-21T01:51:32;6.80;;;5.20;;
4001;SDS011;2015;48.670;9.060;2024-02-21T01:54:04;6.80;;;4.05;;
4001;SDS011;2015;48.670;9.060;2024-02-21T01:56:36;10.00;;;4.90;;
4001;SDS011;2015;48.670;9.060;2024-02-21T01:59:09;8.33;;;3.80;;
4001;SDS011;2015;48.670;9.060;2024-02-21T02:01:41;4.27;;;3.77;;
4001;SDS011;2015;48.670;9.060;2024-02-21T02:04:13;5.87;;;3.90;;
4001;SDS011;2015;48.670;9.060;2024-02-21T02:06:45;10.17;;;3.93;;
4001;SDS011;2015;48.670;9.060;2024-02-21T02:09:17;3.60;;;3.30;;
4001;SDS011;2015;48.670;9.060;2024-02-21T02:11:49;9.70;;;4.00;;
4001;SDS011;2015;48.670;9.060;2024-02-21T02:14:21;3.60;;;3.30;;
4001;SDS011;2015;48.670;9.060;2024-02-21T02:16:53;6.20;;;4.17;;
4001;SDS011;2015;48.670;9.060;2024-02-21T02:19:25;9.63;;;3.80;;
4001;SDS011;2015;48.670;9.060;2024-02-21T02:22:00;4.73;;;4.33;;
4001;SDS011;2015;48.670;9.060;2024-02-21T02:24:46;6.07;;;4.90;;
4001;SDS011;2015;48.670;9.060;2024-02-21T02:27:17;4.50;;;4.20;;
4001;SDS011;2015;48.670;9.060;2024-02-21T02:29:49;6.80;;;5.07;;
4001;SDS011;2015;48.670;9.060;2024-02-21T02:32:21;3.97;;;3.53;;
4001;SDS011;2015;48.670;9.060;2024-02-21T02:34:53;7.83;;;3.77;;
4001;SDS011;2015;48.670;9.060;2024-02-21T02:37:24;4.03;;;3.70;;
4001;SDS011;2015;48.670;9.060;2024-02-21T02:39:56;4.80;;;4.20;;
4001;SDS011;2015;48.670;9.060;2024-02-21T02:42:28;5.77;;;5.10;;
4001;SDS011;2015;48.670;9.060;2024-02-21T02:45:00;6.63;;;3.90;;
4001;SDS011;2015;48.670;9.060;2024-02-21T02:47:32;7.43;;;4.37;;
4001;SDS011;2015;48.670;9.060;2024-02-21T02:50:06;5.83;;;5.33;;
4001;SDS011;2015;48.670;9.060;2024-02-21T02:52:39;3.97;;;3.67;;
4001;SDS011;2015;48.670;9.060;2024-02-21T02:55:11;5.20;;;4.70;;
4001;SDS011;2015;48.670;9.060;2024-02-21T02:57:42;9.07;;;4.10;;
4001;SDS011;2015;48.670;9.060;2024-02-21T03:00:14;3.83;;;3.33;;
4001;SDS011;2015;48.670;9.060;2024-02-21T03:02:48;5.03;;;4.10;;
4001;SDS011;2015;48.670;9.060;2024-02-21T03:05:21;6.70;;;5.47;;
4001;SDS011;2015;48.670;9.060;2024-02-21T03:07:53;4.30;;;4.00;;
4001;SDS011;2015;48.670;9.060;2024-02-21T03:10:25;4.23;;;3.40;;
4001;SDS011;2015;48.670;9.060;2024-02-21T03:12:57;3.87;;;3.47;;
4001;SDS011;2015;48.670;9.060;2024-02-21T03:15:30;4.10;;;3.60;;
4001;SDS011;2015;48.670;9.060;2024-02-21T03:18:01;7.80;;;4.30;;
4001;SDS011;2015;48.670;9.060;2024-02-21T03:20:34;3.67;;;3.30;;
4001;SDS011;2015;48.670;9.060;2024-02-21T03:23:05;3.77;;;3.47;;
4001;SDS011;2015;48.670;9.060;2024-02-21T03:25:37;4.97;;;4.03;;
4001;SDS011;2015;48.670;9.060;2024-02-21T03:28:09;4.47;;;4.07;;
4001;SDS011;2015;48.670;9.060;2024-02-21T03:30:41;5.60;;;3.57;;
4001;SDS011;2015;48.670;9.060;2024-02-21T03:33:12;5.90;;;4.50;;
4001;SDS011;2015;48.670;9.060;2024-02-21T03:35:44;4.60;;;4.27;;
4001;SDS011;2015;48.670;9.060;2024-02-21T03:38:16;4.17;;;3.87;;
4001;SDS011;2015;48.670;9.060;2024-02-21T03:40:48;6.40;;;4.20;;
4001;SDS011;2015;48.670;9.060;2024-02-21T03:43:19;5.20;;;3.20;;
4001;SDS011;2015;48.670;9.060;2024-02-21T03:45:51;4.27;;;3.97;;
4001;SDS011;2015;48.670;9.060;2024-02-21T03:48:23;4.80;;;4.30;;
4001;SDS011;2015;48.670;9.060;2024-02-21T03:50:54;4.13;;;3.73;;
4001;SDS011;2015;48.670;9.060;2024-02-21T03:53:26;4.60;;;3.80;;
4001;SDS011;2015;48.670;9.060;2024-02-21T03:56:02;3.87;;;3.53;;
4001;SDS011;2015;48.670;9.060;2024-02-21T03:58:35;6.33;;;4.37;;
4001;SDS011;2015;48.670;9.060;2024-02-21T04:01:07;4.13;;;3.73;;
4001;SDS011;2015;48.670;9.060;2024-02-21T04:03:39;6.73;;;6.17;;
4001;SDS011;2015;48.670;9.060;2024-02-21T04:06:11;3.47;;;3.17;;
4001;SDS011;2015;48.670;9.060;2024-02-21T04:08:43;3.93;;;3.63;;
4001;SDS011;2015;48.670;9.060;2024-02-21T04:11:16;3.80;;;3.50;;
4001;SDS011;2015;48.670;9.060;2024-02-21T04:13:50;3.80;;;3.50;;
4001;SDS011;2015;48.670;9.060;2024-02-21T04:16:22;4.00;;;3.67;;
4001;SDS011;2015;48.670;9.060;2024-02-21T04:18:54;6.07;;;4.47;;
4001;SDS011;2015;48.670;9.060;2024-02-21T04:21:26;3.43;;;3.23;;
4001;SDS011;2015;48.670;9.060;2024-02-21T04:23:57;4.10;;;3.70;;
4001;SDS011;2015;48.670;9.060;2024-02-21T04:26:29;6.47;;;4.20;;
4001;SDS011;2015;48.670;9.060;2024-02-21T04:29:01;9.60;;;3.87;;
4001;SDS011;2015;48.670;9.060;2024-02-21T04:31:34;6.00;;;3.50;;
4001;SDS011;2015;48.670;9.060;2024-02-21T04:34:06;4.40;;;3.90;;
4001;SDS011;2015;48.670;9.060;2024-02-21T04:36:38;4.80;;;4.40;;
4001;SDS011;2015;48.670;9.060;2024-02-21T04:39:09;4.87;;;4.00;;
4001;SDS011;2015;48.670;9.060;2024-02-21T04:41:42;6.40;;;4.07;;
4001;SDS011;2015;48.670;9.060;2024-02-21T04:44:14;5.23;;;4.30;;
4001;SDS011;2015;48.670;9.060;2024-02-21T04:46:47;3.60;;;3.30;;
4001;SDS011;2015;48.670;9.060;2024-02-21T04:49:19;3.17;;;2.97;;
4001;SDS011;2015;48.670;9.060;2024-02-21T04:51:50;3.13;;;2.93;;
4001;SDS011;2015;48.670;9.060;2024-02-21T04:54:22;3.30;;;3.20;;
4001;SDS011;2015;48.670;9.060;2024-02-21T04:56:54;5.13;;;3.20;;
4001;SDS011;2015;48.670;9.060;2024-02-21T04:59:26;9.87;;;4.27;;
4001;SDS011;2015;48.670;9.060;2024-02-21T05:01:58;4.30;;;3.27;;
4001;SDS011;2015;48.670;9.060;2024-02-21T05:04:30;5.13;;;3.10;;
4001;SDS011;2015;48.670;9.060;2024-02-21T05:07:02;5.80;;;2.73;;
4001;SDS011;2015;48.670;9.060;2024-02-21T05:09:33;4.43;;;3.60;;
4001;SDS011;2015;48.670;9.060;2024-02-21T05:12:05;4.23;;;3.80;;
4001;SDS011;2015;48.670;9.060;2024-02-21T05:14:37;10.10;;;3.60;;
4001;SDS011;2015;48.670;9.060;2024-02-21T05:17:09;3.40;;;3.10;;
4001;SDS011;2015;48.670;9.060;2024-02-21T05:19:41;3.97;;;3.47;;
4001;SDS011;2015;48.670;9.060;2024-02-21T05:22:13;3.77;;;2.97;;
4001;SDS011;2015;48.670;9.060;2024-02-21T05:24:45;4.60;;;3.20;;
4001;SDS011;2015;48.670;9.060;2024-02-21T05:27:16;3.40;;;3.10;;
4001;SDS011;2015;48.670;9.060;2024-02-21T05:29:48;6.10;;;3.50;;
4001;SDS011;2015;48.670;9.060;2024-02-21T05:32:20;8.00;;;4.30;;
4001;SDS011;2015;48.670;9.060;2024-02-21T05:34:52;5.23;;;4.70;;
4001;SDS011;2015;48.670;9.060;2024-02-21T05:37:24;3.57;;;3.37;;
4001;SDS011;2015;48.670;9.060;2024-02-21T05:39:55;13.10;;;3.20;;
4001;SDS011;2015;48.670;9.060;2024-02-21T05:42:27;3.30;;;2.90;;
4001;SDS011;2015;48.670;9.060;2024-02-21T05:44:59;5.30;;;3.90;;
4001;SDS011;2015;48.670;9.060;2024-02-21T05:47:31;13.23;;;7.33;;
4001;SDS011;2015;48.670;9.060;2024-02-21T05:50:03;7.00;;;6.43;;
4001;SDS011;2015;48.670;9.060;2024-02-21T05:52:35;5.33;;;4.80;;
4001;SDS011;2015;48.670;9.060;2024-02-21T05:55:07;9.27;;;6.10;;
4001;SDS011;2015;48.670;9.060;2024-02-21T05:57:40;8.20;;;5.68;;
4001;SDS011;2015;48.670;9.060;2024-02-21T06:00:12;7.57;;;5.33;;
4001;SDS011;2015;48.670;9.060;2024-02-21T06:02:46;5.27;;;4.87;;
4001;SDS011;2015;48.670;9.060;2024-02-21T06:05:18;14.83;;;6.13;;
4001;SDS011;2015;48.670;9.060;2024-02-21T06:07:50;4.33;;;3.77;;
4001;SDS011;2015;48.670;9.060;2024-02-21T06:10:22;7.80;;;3.67;;
4001;SDS011;2015;48.670;9.060;2024-02-21T06:12:53;7.23;;;4.63;;
4001;SDS011;2015;48.670;9.060;2024-02-21T06:15:25;4.57;;;4.27;;
4001;SDS011;2015;48.670;9.060;2024-02-21T06:17:57;8.60;;;3.90;;
4001;SDS011;2015;48.670;9.060;2024-02-21T06:20:29;3.67;;;3.37;;
4001;SDS011;2015;48.670;9.060;2024-02-21T06:23:00;3.97;;;3.47;;
4001;SDS011;2015;48.670;9.060;2024-02-21T06:25:32;4.33;;;3.93;;
4001;SDS011;2015;48.670;9.060;2024-02-21T06:28:05;4.07;;;3.50;;
4001;SDS011;2015;48.670;9.060;2024-02-21T06:30:36;3.40;;;3.20;;
4001;SDS011;2015;48.670;9.060;2024-02-21T06:33:08;7.00;;;3.95;;
4001;SDS011;2015;48.670;9.060;2024-02-21T06:35:40;3.23;;;3.00;;
4001;SDS011;2015;48.670;9.060;2024-02-21T06:38:14;3.40;;;3.20;;
4001;SDS011;2015;48.670;9.060;2024-02-21T06:40:48;7.40;;;3.57;;
4001;SDS011;2015;48.670;9.060;2024-02-21T06:43:22;6.90;;;4.53;;
4001;SDS011;2015;48.670;9.060;2024-02-21T06:45:54;3.43;;;3.23;;
4001;SDS011;2015;48.670;9.060;2024-02-21T06:48:28;9.13;;;2.83;;
4001;SDS011;2015;48.670;9.060;2024-02-21T06:50:59;3.80;;;3.60;;
4001;SDS011;2015;48.670;9.060;2024-02-21T06:53:31;10.00;;;4.83;;
4001;SDS011;2015;48.670;9.060;2024-02-21T06:56:03;7.00;;;4.10;;
4001;SDS011;2015;48.670;9.060;2024-02-21T06:58:35;3.10;;;2.90;;
4001;SDS011;2015;48.670;9.060;2024-02-21T07:01:07;2.80;;;2.70;;
4001;SDS011;2015;48.670;9.060;2024-02-21T07:03:39;9.27;;;4.33;;
4001;SDS011;2015;48.670;9.060;2024-02-21T07:06:11;5.23;;;4.50;;
4001;SDS011;2015;48.670;9.060;2024-02-21T07:08:43;4.93;;;4.63;;
4001;SDS011;2015;48.670;9.060;2024-02-21T07:11:15;3.90;;;3.67;;
4001;SDS011;2015;48.670;9.060;2024-02-21T07:13:47;7.70;;;4.73;;
4001;SDS011;2015;48.670;9.060;2024-02-21T07:16:19;7.13;;;4.30;;
4001;SDS011;2015;48.670;9.060;2024-02-21T07:18:50;6.40;;;5.43;;
4001;SDS011;2015;48.670;9.060;2024-02-21T07:21:22;4.00;;;3.70;;
4001;SDS011;2015;48.670;9.060;2024-02-21T07:23:54;6.20;;;2.80;;
4001;SDS011;2015;48.670;9.060;2024-02-21T07:26:26;7.83;;;7.13;;
4001;SDS011;2015;48.670;9.060;2024-02-21T07:28:57;4.00;;;3.40;;
4001;SDS011;2015;48.670;9.060;2024-02-21T07:31:29;3.60;;;3.30;;
4001;SDS011;2015;48.670;9.060;2024-02-21T07:34:01;4.57;;;4.10;;
4001;SDS011;2015;48.670;9.060;2024-02-21T07:36:33;6.00;;;5.60;;
4001;SDS011;2015;48.670;9.060;2024-02-21T07:39:05;5.87;;;3.43;;
4001;SDS011;2015;48.670;9.060;2024-02-21T07:41:36;3.87;;;3.50;;
4001;SDS011;2015;48.670;9.060;2024-02-21T07:44:10;4.60;;;4.17;;
4001;SDS011;2015;48.670;9.060;2024-02-21T07:46:42;6.23;;;3.10;;
4001;SDS011;2015;48.670;9.060;2024-02-21T07:49:14;3.53;;;2.37;;
4001;SDS011;2015;48.670;9.060;2024-02-21T07:51:45;4.63;;;3.13;;
4001;SDS011;2015;48.670;9.060;2024-02-21T07:54:17;5.47;;;3.07;;
4001;SDS011;2015;48.670;9.060;2024-02-21T07:56:51;8.60;;;4.43;;
4001;SDS011;2015;48.670;9.060;2024-02-21T07:59:23;3.60;;;2.67;;
4001;SDS011;2015;48.670;9.060;2024-02-21T08:01:59;13.43;;;3.27;;
4001;SDS011;2015;48.670;9.060;2024-02-21T08:04:31;2.43;;;2.30;;
4001;SDS011;2015;48.670;9.060;2024-02-21T08:07:03;3.43;;;3.13;;
4001;SDS011;2015;48.670;9.060;2024-02-21T08:09:35;6.90;;;4.03;;
4001;SDS011;2015;48.670;9.060;2024-02-21T08:12:08;3.80;;;3.60;;
4001;SDS011;2015;48.670;9.060;2024-02-21T08:14:40;4.97;;;3.60;;
4001;SDS011;2015;48.670;9.060;2024-02-21T08:17:12;3.80;;;2.60;;
4001;SDS011;2015;48.670;9.060;2024-02-21T08:19:44;5.90;;;2.93;;
4001;SDS011;2015;48.670;9.060;2024-02-21T08:22:16;3.33;;;3.10;;
4001;SDS011;2015;48.670;9.060;2024-02-21T08:24:47;4.03;;;3.63;;
4001;SDS011;2015;48.670;9.060;2024-02-21T08:27:19;4.20;;;2.63;;
4001;SDS011;2015;48.670;9.060;2024-02-21T08:29:51;5.10;;;3.13;;
4001;SDS011;2015;48.670;9.060;2024-02-21T08:32:23;7.22;;;3.00;;
4001;SDS011;2015;48.670;9.060;2024-02-21T08:34:54;6.17;;;3.40;;
4001;SDS011;2015;48.670;9.060;2024-02-21T08:37:27;8.40;;;4.30;;
4001;SDS011;2015;48.670;9.060;2024-02-21T08:39:59;7.60;;;4.03;;
4001;SDS011;2015;48.670;9.060;2024-02-21T08:42:36;3.33;;;3.13;;
4001;SDS011;2015;48.670;9.060;2024-02-21T08:45:10;5.63;;;3.73;;
4001;SDS011;2015;48.670;9.060;2024-02-21T08:47:41;3.53;;;3.10;;
4001;SDS011;2015;48.670;9.060;2024-02-21T08:50:13;5.03;;;3.23;;
4001;SDS011;2015;48.670;9.060;2024-02-21T08:52:58;3.23;;;2.83;;
4001;SDS011;2015;48.670;9.060;2024-02-21T08:55:30;4.00;;;3.70;;
4001;SDS011;2015;48.670;9.060;2024-02-21T08:58:01;4.00;;;2.63;;
4001;SDS011;2015;48.670;9.060;2024-02-21T09:00:35;3.90;;;3.60;;
4001;SDS011;2015;48.670;9.060;2024-02-21T09:03:07;2.87;;;2.70;;
4001;SDS011;2015;48.670;9.060;2024-02-21T09:05:38;3.80;;;3.07;;
4001;SDS011;2015;48.670;9.060;2024-02-21T09:08:10;3.13;;;2.83;;
4001;SDS011;2015;48.670;9.060;2024-02-21T09:10:42;3.23;;;3.03;;
4001;SDS011;2015;48.670;9.060;2024-02-21T09:13:14;5.80;;;3.37;;
4001;SDS011;2015;48.670;9.060;2024-02-21T09:15:46;2.67;;;2.53;;
4001;SDS011;2015;48.670;9.060;2024-02-21T09:18:19;3.43;;;3.07;;
4001;SDS011;2015;48.670;9.060;2024-02-21T09:20:51;5.07;;;3.53;;
4001;SDS011;2015;48.670;9.060;2024-02-21T09:23:26;2.53;;;2.30;;
4001;SDS011;2015;48.670;9.060;2024-02-21T09:25:58;5.23;;;3.53;;
4001;SDS011;2015;48.670;9.060;2024-02-21T09:28:32;6.57;;;3.30;;
4001;SDS011;2015;48.670;9.060;2024-02-21T09:31:05;3.87;;;3.40;;
4001;SDS011;2015;48.670;9.060;2024-02-21T09:33:37;5.83;;;3.90;;
4001;SDS011;2015;48.670;9.060;2024-02-21T09:36:09;7.60;;;3.30;;
4001;SDS011;2015;48.670;9.060;2024-02-21T09:38:41;4.53;;;3.50;;
4001;SDS011;2015;48.670;9.060;2024-02-21T09:41:16;2.43;;;2.23;;
4001;SDS011;2015;48.670;9.060;2024-02-21T09:43:56;4.83;;;2.80;;
4001;SDS011;2015;48.670;9.060;2024-02-21T09:49:31;8.63;;;3.30;;
4001;SDS011;2015;48.670;9.060;2024-02-21T09:52:05;2.80;;;2.60;;
4001;SDS011;2015;48.670;9.060;2024-02-21T09:54:37;3.27;;;3.10;;
4001;SDS011;2015;48.670;9.060;2024-02-21T09:57:10;3.40;;;3.10;;
4001;SDS011;2015;48.670;9.060;2024-02-21T09:59:43;4.53;;;3.37;;
4001;SDS011;2015;48.670;9.060;2024-02-21T10:02:16;3.60;;;2.23;;
4001;SDS011;2015;48.670;9.060;2024-02-21T10:04:49;2.53;;;2.40;;
4001;SDS011;2015;48.670;9.060;2024-02-21T10:07:21;4.60;;;3.00;;
4001;SDS011;2015;48.670;9.060;2024-02-21T10:10:04;6.47;;;2.77;;
4001;SDS011;2015;48.670;9.060;2024-02-21T10:12:36;5.43;;;3.23;;
4001;SDS011;2015;48.670;9.060;2024-02-21T10:15:22;4.90;;;3.37;;
4001;SDS011;2015;48.670;9.060;2024-02-21T10:17:58;7.20;;;4.20;;
4001;SDS011;2015;48.670;9.060;2024-02-21T10:20:32;3.90;;;3.50;;
4001;SDS011;2015;48.670;9.060;2024-02-21T10:23:05;3.03;;;2.47;;
4001;SDS011;2015;48.670;9.060;2024-02-21T10:25:40;2.80;;;2.60;;
4001;SDS011;2015;48.670;9.060;2024-02-21T10:28:17;3.57;;;3.37;;
4001;SDS011;2015;48.670;9.060;2024-02-21T10:30:54;7.40;;;3.00;;
4001;SDS011;2015;48.670;9.060;2024-02-21T10:33:25;4.03;;;2.77;;
4001;SDS011;2015;48.670;9.060;2024-02-21T10:36:09;3.50;;;2.30;;
4001;SDS011;2015;48.670;9.060;2024-02-21T10:38:42;2.43;;;2.23;;
4001;SDS011;2015;48.670;9.060;2024-02-21T10:41:14;3.03;;;2.83;;
4001;SDS011;2015;48.670;9.060;2024-02-21T10:43:53;2.33;;;2.23;;
4001;SDS011;2015;48.670;9.060;2024-02-21T10:46:26;5.27;;;2.47;;
4001;SDS011;2015;48.670;9.060;2024-02-21T10:49:10;3.30;;;2.13;;
4001;SDS011;2015;48.670;9.060;2024-02-21T10:51:45;2.60;;;2.40;;
4001;SDS011;2015;48.670;9.060;2024-02-21T10:54:37;3.00;;;2.60;;
4001;SDS011;2015;48.670;9.060;2024-02-21T10:57:15;2.63;;;2.20;;
4001;SDS011;2015;48.670;9.060;2024-02-21T10:59:48;2.90;;;2.43;;
4001;SDS011;2015;48.670;9.060;2024-02-21T11:02:20;2.10;;;2.00;;
4001;SDS011;2015;48.670;9.060;2024-02-21T11:04:53;2.77;;;2.50;;
4001;SDS011;2015;48.670;9.060;2024-02-21T11:07:26;3.10;;;2.00;;
4001;SDS011;2015;48.670;9.060;2024-02-21T11:09:58;2.00;;;1.90;;
4001;SDS011;2015;48.670;9.060;2024-02-21T11:12:32;3.73;;;2.30;;
4001;SDS011;2015;48.670;9.060;2024-02-21T11:15:05;2.40;;;2.30;;
4001;SDS011;2015;48.670;9.060;2024-02-21T11:17:37;4.40;;;2.87;;
4001;SDS011;2015;48.670;9.060;2024-02-21T11:20:20;3.37;;;1.87;;
4001;SDS011;2015;48.670;9.060;2024-02-21T11:23:02;2.23;;;2.10;;
4001;SDS011;2015;48.670;9.060;2024-02-21T11:25:35;3.00;;;2.80;;
4001;SDS011;2015;48.670;9.060;2024-02-21T11:28:07;4.07;;;2.90;;
4001;SDS011;2015;48.670;9.060;2024-02-21T11:30:38;2.33;;;2.00;;
4001;SDS011;2015;48.670;9.060;2024-02-21T11:33:10;2.33;;;1.80;;
4001;SDS011;2015;48.670;9.060;2024-02-21T11:35:43;2.77;;;2.57;;
4001;SDS011;2015;48.670;9.060;2024-02-21T11:38:15;2.27;;;2.17;;
4001;SDS011;2015;48.670;9.060;2024-02-21T11:40:48;3.87;;;1.77;;
4001;SDS011;2015;48.670;9.060;2024-02-21T11:43:20;3.20;;;2.00;;
4001;SDS011;2015;48.670;9.060;2024-02-21T11:46:01;2.57;;;2.37;;
4001;SDS011;2015;48.670;9.060;2024-02-21T11:48:34;2.10;;;1.50;;
4001;SDS011;2015;48.670;9.060;2024-02-21T11:51:06;2.77;;;1.97;;
4001;SDS011;2015;48.670;9.060;2024-02-21T11:53:38;3.17;;;2.13;;
4001;SDS011;2015;48.670;9.060;2024-02-21T11:56:21;2.83;;;2.57;;
4001;SDS011;2015;48.670;9.060;2024-02-21T11:58:54;3.30;;;3.00;;
4001;SDS011;2015;48.670;9.060;2024-02-21T12:01:25;3.20;;;2.23;;
4001;SDS011;2015;48.670;9.060;2024-02-21T12:03:57;2.00;;;1.90;;
4001;SDS011;2015;48.670;9.060;2024-02-21T12:06:29;4.07;;;1.80;;
4001;SDS011;2015;48.670;9.060;2024-02-21T12:09:03;2.67;;;2.47;;
4001;SDS011;2015;48.670;9.060;2024-02-21T12:11:35;2.10;;;2.00;;
4001;SDS011;2015;48.670;9.060;2024-02-21T12:14:07;2.10;;;1.90;;
4001;SDS011;2015;48.670;9.060;2024-02-21T12:16:40;2.13;;;1.93;;
4001;SDS011;2015;48.670;9.060;2024-02-21T12:19:13;3.03;;;2.00;;
4001;SDS011;2015;48.670;9.060;2024-02-21T12:21:48;2.30;;;2.10;;
4001;SDS011;2015;48.670;9.060;2024-02-21T12:24:23;2.73;;;2.57;;
4001;SDS011;2015;48.670;9.060;2024-02-21T12:26:56;2.53;;;2.20;;
4001;SDS011;2015;48.670;9.060;2024-02-21T12:29:29;2.53;;;1.80;;
4001;SDS011;2015;48.670;9.060;2024-02-21T12:32:01;2.57;;;2.37;;
4001;SDS011;2015;48.670;9.060;2024-02-21T12:34:35;2.30;;;2.10;;
4001;SDS011;2015;48.670;9.060;2024-02-21T12:37:23;3.43;;;1.93;;
4001;SDS011;2015;48.670;9.060;2024-02-21T12:39:55;1.90;;;1.80;;
4001;SDS011;2015;48.670;9.060;2024-02-21T12:42:27;3.00;;;2.10;;
4001;SDS011;2015;48.670;9.060;2024-02-21T12:45:00;2.50;;;2.40;;
4001;SDS011;2015;48.670;9.060;2024-02-21T12:47:34;4.40;;;1.80;;
4001;SDS011;2015;48.670;9.060;2024-02-21T12:50:06;3.17;;;2.40;;
4001;SDS011;2015;48.670;9.060;2024-02-21T12:52:38;1.63;;;1.53;;
4001;SDS011;2015;48.670;9.060;2024-02-21T12:55:10;2.10;;;1.60;;
4001;SDS011;2015;48.670;9.060;2024-02-21T12:57:44;1.63;;;1.53;;
4001;SDS011;2015;48.670;9.060;2024-02-21T13:00:16;1.60;;;1.50;;
4001;SDS011;2015;48.670;9.060;2024-02-21T13:02:48;2.33;;;1.83;;
4001;SDS011;2015;48.670;9.060;2024-02-21T13:05:20;1.77;;;1.67;;
4001;SDS011;2015;48.670;9.060;2024-02-21T13:07:52;4.33;;;1.80;;
4001;SDS011;2015;48.670;9.060;2024-02-21T13:10:24;5.80;;;2.03;;
4001;SDS011;2015;48.670;9.060;2024-02-21T13:12:56;5.43;;;3.10;;
4001;SDS011;2015;48.670;9.060;2024-02-21T13:15:28;2.43;;;2.33;;
4001;SDS011;2015;48.670;9.060;2024-02-21T13:18:00;2.30;;;2.20;;
4001;SDS011;2015;48.670;9.060;2024-02-21T13:20:32;1.97;;;1.80;;
4001;SDS011;2015;48.670;9.060;2024-02-21T13:23:04;3.50;;;2.20;;
4001;SDS011;2015;48.670;9.060;2024-02-21T13:25:36;2.00;;;1.90;;
4001;SDS011;2015;48.670;9.060;2024-02-21T13:28:07;1.90;;;1.80;;
4001;SDS011;2015;48.670;9.060;2024-02-21T13:30:41;2.77;;;2.60;;
4001;SDS011;2015;48.670;9.060;2024-02-21T13:33:13;1.50;;;1.40;;
4001;SDS011;2015;48.670;9.060;2024-02-21T13:35:45;1.70;;;1.60;;
4001;SDS011;2015;48.670;9.060;2024-02-21T13:38:16;4.10;;;1.80;;
4001;SDS011;2015;48.670;9.060;2024-02-21T13:40:49;1.40;;;1.30;;
4001;SDS011;2015;48.670;9.060;2024-02-21T13:43:22;1.70;;;1.50;;
4001;SDS011;2015;48.670;9.060;2024-02-21T13:45:57;3.70;;;2.10;;
4001;SDS011;2015;48.670;9.060;2024-02-21T13:48:31;2.50;;;1.70;;
4001;SDS011;2015;48.670;9.060;2024-02-21T13:51:04;4.33;;;1.90;;
4001;SDS011;2015;48.670;9.060;2024-02-21T13:53:36;1.87;;;1.57;;
4001;SDS011;2015;48.670;9.060;2024-02-21T13:56:08;1.70;;;1.60;;
4001;SDS011;2015;48.670;9.060;2024-02-21T13:58:40;2.70;;;1.97;;
4001;SDS011;2015;48.670;9.060;2024-02-21T14:01:12;2.40;;;1.60;;
4001;SDS011;2015;48.670;9.060;2024-02-21T14:03:44;2.00;;;1.80;;
4001;SDS011;2015;48.670;9.060;2024-02-21T14:06:15;2.20;;;2.03;;
4001;SDS011;2015;48.670;9.060;2024-02-21T14:08:48;3.30;;;1.55;;
4001;SDS011;2015;48.670;9.060;2024-02-21T14:11:20;3.67;;;2.03;;
4001;SDS011;2015;48.670;9.060;2024-02-21T14:13:52;2.10;;;1.90;;
4001;SDS011;2015;48.670;9.060;2024-02-21T14:16:24;2.07;;;1.97;;
4001;SDS011;2015;48.670;9.060;2024-02-21T14:18:56;2.00;;;1.90;;
4001;SDS011;2015;48.670;9.060;2024-02-21T14:21:28;2.50;;;2.30;;
4001;SDS011;2015;48.670;9.060;2024-02-21T14:24:00;2.00;;;1.83;;
4001;SDS011;2015;48.670;9.060;2024-02-21T14:26:34;2.30;;;2.10;;
4001;SDS011;2015;48.670;9.060;2024-02-21T14:29:07;2.10;;;2.00;;
4001;SDS011;2015;48.670;9.060;2024-02-21T14:31:39;1.90;;;1.80;;
4001;SDS011;2015;48.670;9.060;2024-02-21T14:34:10;3.10;;;2.00;;
4001;SDS011;2015;48.670;9.060;2024-02-21T14:36:43;5.60;;;1.67;;
4001;SDS011;2015;48.670;9.060;2024-02-21T14:39:14;7.10;;;2.60;;
4001;SDS011;2015;48.670;9.060;2024-02-21T14:41:46;3.80;;;2.20;;
4001;SDS011;2015;48.670;9.060;2024-02-21T14:44:18;2.47;;;2.27;;
4001;SDS011;2015;48.670;9.060;2024-02-21T14:46:50;2.80;;;1.57;;
4001;SDS011;2015;48.670;9.060;2024-02-21T14:49:21;2.17;;;2.07;;
4001;SDS011;2015;48.670;9.060;2024-02-21T14:51:53;2.27;;;2.10;;
4001;SDS011;2015;48.670;9.060;2024-02-21T14:54:25;4.67;;;1.90;;
4001;SDS011;2015;48.670;9.060;2024-02-21T14:56:57;3.10;;;1.73;;
4001;SDS011;2015;48.670;9.060;2024-02-21T14:59:29;1.90;;;1.80;;
4001;SDS011;2015;48.670;9.060;2024-02-21T15:02:05;4.70;;;2.03;;
4001;SDS011;2015;48.670;9.060;2024-02-21T15:04:39;1.87;;;1.77;;
4001;SDS011;2015;48.670;9.060;2024-02-21T15:07:10;2.17;;;1.97;;
4001;SDS011;2015;48.670;9.060;2024-02-21T15:09:42;2.97;;;2.47;;
4001;SDS011;2015;48.670;9.060;2024-02-21T15:12:14;2.00;;;1.90;;
4001;SDS011;2015;48.670;9.060;2024-02-21T15:14:46;2.87;;;2.20;;
4001;SDS011;2015;48.670;9.060;2024-02-21T15:17:18;2.40;;;2.30;;
4001;SDS011;2015;48.670;9.060;2024-02-21T15:19:49;2.43;;;2.17;;
4001;SDS011;2015;48.670;9.060;2024-02-21T15:22:21;3.70;;;2.93;;
4001;SDS011;2015;48.670;9.060;2024-02-21T15:24:54;2.70;;;2.30;;
4001;SDS011;2015;48.670;9.060;2024-02-21T15:27:26;2.37;;;2.27;;
4001;SDS011;2015;48.670;9.060;2024-02-21T15:29:59;2.93;;;2.60;;
4001;SDS011;2015;48.670;9.060;2024-02-21T15:32:33;2.93;;;2.73;;
4001;SDS011;2015;48.670;9.060;2024-02-21T15:35:05;5.87;;;2.07;;
4001;SDS011;2015;48.670;9.060;2024-02-21T15:37:37;3.73;;;2.00;;
4001;SDS011;2015;48.670;9.060;2024-02-21T15:40:09;2.53;;;2.37;;
4001;SDS011;2015;48.670;9.060;2024-02-21T15:42:41;2.40;;;2.10;;
4001;SDS011;2015;48.670;9.060;2024-02-21T15:45:13;4.20;;;3.27;;
4001;SDS011;2015;48.670;9.060;2024-02-21T15:47:45;2.90;;;2.70;;
4001;SDS011;2015;48.670;9.060;2024-02-21T15:50:17;4.77;;;2.83;;
4001;SDS011;2015;48.670;9.060;2024-02-21T15:52:50;3.10;;;2.80;;